Smyrna, Tennessee
Current Conditions -  °F | °C
As of 4:53 AM on Thursday 27 Nov 2014 (Local Time) from KBNA Reporting Station
Overcast Overcast  
Wind Chill: 30°   Ceiling: 1600
Heat Index: 37°   Visibility: 10mi
Dew Point: 31°   Wind: 9mph
Humidity: 79%   Direction: 320°NW
Pressure: 30.23"   Gusts: 18mph
Location:  35.97°N, 86.51°W
Report Text: KBNA 271053Z 32008G16KT 10SM BKN016 OVC025 03/M01 A3023 RMK AO2 SLP237 T00281006
Loading
Personal Weather Stations






























Interactive Weather Map New forecast layout! Learn more

10-Day Weather Forecast

Advertisements
Track Severe Weather on mobile